createdAt,value
2024-03-24T00:04:10.685Z,94.64
2024-03-24T00:09:14.837Z,94.81
2024-03-24T00:14:14.672Z,93.99
2024-03-24T00:19:10.864Z,94.16
2024-03-24T00:24:14.974Z,94.14
2024-03-24T00:29:17.201Z,94.03
2024-03-24T00:34:10.678Z,93.45
2024-03-24T00:39:14.700Z,93.25
2024-03-24T00:44:12.853Z,93.48
2024-03-24T00:49:12.669Z,94.20
2024-03-24T00:54:14.688Z,93.82
2024-03-24T00:59:16.748Z,93.76
2024-03-24T01:04:13.077Z,94.06
2024-03-24T01:09:11.019Z,94.15
2024-03-24T01:14:17.566Z,94.99
2024-03-24T01:19:10.774Z,95.38
2024-03-24T01:24:28.081Z,95.44
2024-03-24T01:29:14.729Z,96.31
2024-03-24T01:34:13.399Z,96.67
2024-03-24T01:39:12.668Z,96.79
2024-03-24T01:44:12.595Z,97.27
2024-03-24T01:49:11.141Z,97.36
2024-03-24T01:54:14.062Z,98.32
2024-03-24T01:59:16.731Z,98.51
2024-03-24T02:04:10.755Z,98.00
2024-03-24T02:09:13.097Z,97.73
2024-03-24T02:14:17.238Z,98.43
2024-03-24T02:19:10.697Z,98.00
2024-03-24T02:24:12.659Z,98.45
2024-03-24T02:29:13.100Z,98.84
2024-03-24T02:34:12.926Z,98.81
2024-03-24T02:39:17.458Z,98.57
2024-03-24T02:44:14.675Z,98.68
2024-03-24T02:49:10.554Z,98.77
2024-03-24T02:54:17.157Z,98.54
2024-03-24T02:59:12.637Z,98.57
2024-03-24T03:04:12.765Z,98.89
2024-03-24T03:09:19.655Z,98.82
2024-03-24T03:14:12.580Z,99.40
2024-03-24T03:19:12.595Z,99.93
2024-03-24T03:24:17.130Z,100.00
2024-03-24T03:29:12.542Z,100.00
2024-03-24T03:34:12.836Z,100.00
2024-03-24T03:39:16.707Z,100.00
2024-03-24T03:44:12.638Z,100.00
2024-03-24T03:49:16.650Z,100.00
2024-03-24T03:54:11.738Z,100.00
2024-03-24T03:59:14.565Z,100.00
2024-03-24T04:04:16.999Z,100.00
2024-03-24T04:09:16.220Z,100.00
2024-03-24T04:14:17.198Z,100.00
2024-03-24T04:19:14.580Z,100.00
2024-03-24T04:24:12.544Z,100.00
2024-03-24T04:29:15.260Z,100.00
2024-03-24T04:34:14.934Z,100.00
2024-03-24T04:39:14.791Z,100.00
2024-03-24T04:44:14.582Z,100.00
2024-03-24T04:49:16.644Z,100.00
2024-03-24T04:54:10.424Z,100.00
2024-03-24T04:59:14.453Z,100.00
2024-03-24T05:04:19.505Z,100.00
2024-03-24T05:09:14.532Z,100.00
2024-03-24T05:14:10.389Z,100.00
2024-03-24T05:19:16.650Z,100.00
2024-03-24T05:24:14.806Z,100.00
2024-03-24T05:29:17.593Z,100.00
2024-03-24T05:34:10.581Z,100.00
2024-03-24T05:39:10.725Z,100.00
2024-03-24T05:44:16.952Z,100.00
2024-03-24T05:49:12.562Z,100.00
2024-03-24T05:54:12.633Z,100.00
2024-03-24T05:59:16.945Z,99.77
2024-03-24T06:04:10.360Z,99.83
2024-03-24T06:09:16.059Z,99.07
2024-03-24T06:14:22.232Z,98.67
2024-03-24T06:19:12.657Z,97.91
2024-03-24T06:24:14.351Z,98.68
2024-03-24T06:29:14.827Z,97.74
2024-03-24T06:34:10.577Z,97.83
2024-03-24T06:39:15.605Z,97.69
2024-03-24T06:44:18.753Z,96.76
2024-03-24T06:49:10.613Z,95.87
2024-03-24T06:54:14.451Z,95.16
2024-03-24T06:59:16.459Z,94.83
2024-03-24T07:04:10.359Z,95.29
2024-03-24T07:09:10.300Z,95.00
2024-03-24T07:14:15.993Z,95.05
2024-03-24T07:19:12.848Z,94.87
2024-03-24T07:24:12.323Z,94.61
2024-03-24T07:29:16.615Z,95.15
2024-03-24T07:34:12.500Z,95.51
2024-03-24T07:39:14.429Z,95.66
2024-03-24T07:44:10.289Z,96.01
2024-03-24T07:49:14.479Z,95.24
2024-03-24T07:54:16.464Z,94.62
2024-03-24T07:57:17.841Z,95.18
2024-03-24T08:01:23.305Z,95.04
2024-03-24T08:06:27.515Z,95.63
2024-03-24T08:11:21.229Z,95.41
2024-03-24T08:16:25.480Z,95.95
2024-03-24T08:21:25.339Z,95.96
2024-03-24T08:26:21.361Z,96.96
2024-03-24T08:31:27.258Z,97.00
2024-03-24T08:36:25.950Z,96.21
2024-03-24T08:41:23.363Z,95.45
2024-03-24T08:46:21.971Z,93.75
2024-03-24T08:51:25.494Z,93.11
2024-03-24T08:56:28.593Z,92.26
2024-03-24T09:01:23.274Z,91.60
2024-03-24T09:06:25.251Z,91.27
2024-03-24T09:11:21.451Z,90.66
2024-03-24T09:16:23.271Z,89.94
2024-03-24T09:21:25.157Z,89.10
2024-03-24T09:26:28.807Z,87.54
2024-03-24T09:31:24.090Z,86.73
2024-03-24T09:36:23.217Z,86.48
2024-03-24T09:41:31.128Z,86.12
2024-03-24T09:46:23.607Z,85.71
2024-03-24T09:51:23.118Z,85.13
2024-03-24T09:56:28.209Z,84.48
2024-03-24T10:01:21.338Z,82.90
2024-03-24T10:06:25.063Z,81.92
2024-03-24T10:11:28.442Z,76.87
2024-03-24T10:16:23.678Z,69.05
2024-03-24T10:21:21.265Z,61.64
2024-03-24T10:26:27.472Z,57.39
2024-03-24T10:31:21.157Z,56.98
2024-03-24T10:36:24.099Z,56.89
2024-03-24T10:41:26.268Z,53.86
2024-03-24T10:46:23.584Z,49.96
2024-03-24T10:51:22.149Z,52.02
2024-03-24T10:56:27.345Z,54.92
2024-03-24T11:01:21.346Z,54.94
2024-03-24T11:06:23.772Z,53.18
2024-03-24T11:11:22.183Z,50.10
2024-03-24T11:16:23.430Z,48.59
2024-03-24T11:21:33.718Z,48.83
2024-03-24T11:26:26.426Z,48.73
2024-03-24T11:36:28.025Z,49.63
2024-03-24T11:41:28.243Z,46.11
2024-03-24T11:46:23.104Z,46.35
2024-03-24T11:51:26.268Z,48.38
2024-03-24T11:56:21.543Z,49.23
2024-03-24T12:01:23.824Z,50.52
2024-03-24T12:06:21.217Z,50.76
2024-03-24T12:11:27.694Z,52.77
2024-03-24T12:16:23.072Z,51.20
2024-03-24T12:21:25.739Z,51.96
2024-03-24T12:26:25.549Z,51.27
2024-03-24T12:31:21.489Z,51.02
2024-03-24T12:36:25.358Z,47.87
2024-03-24T12:41:31.044Z,46.81
2024-03-24T12:46:26.113Z,45.50
2024-03-24T12:51:21.361Z,45.93
2024-03-24T12:56:25.424Z,44.13
2024-03-24T13:01:28.173Z,43.19
2024-03-24T13:07:08.533Z,41.51
2024-03-24T13:11:23.132Z,42.63
2024-03-24T13:17:08.260Z,42.39
2024-03-24T13:19:21.123Z,42.39
2024-03-24T13:21:28.700Z,42.27
2024-03-24T13:26:27.947Z,44.38
2024-03-24T13:31:27.600Z,39.17
2024-03-24T13:36:34.087Z,42.21
2024-03-24T13:41:36.450Z,43.58
2024-03-24T13:46:30.590Z,43.75
2024-03-24T13:51:22.645Z,44.54
2024-03-24T13:56:25.285Z,43.37
2024-03-24T14:01:25.264Z,43.06
2024-03-24T14:06:23.872Z,43.10
2024-03-24T14:11:25.200Z,44.06
2024-03-24T14:16:37.985Z,44.95
2024-03-24T14:21:29.830Z,45.83
2024-03-24T14:26:23.298Z,46.68
2024-03-24T14:31:27.085Z,48.78
2024-03-24T14:36:36.287Z,49.08
2024-03-24T14:41:31.449Z,50.95
2024-03-24T14:46:34.647Z,52.38
2024-03-24T14:51:20.904Z,53.13
2024-03-24T14:56:26.743Z,52.02
2024-03-24T15:01:29.227Z,52.18
2024-03-24T15:06:20.896Z,51.77
2024-03-24T15:11:23.766Z,52.03
2024-03-24T15:16:27.298Z,49.35
2024-03-24T15:21:22.963Z,50.58
2024-03-24T15:26:22.986Z,50.13
2024-03-24T15:31:20.975Z,52.30
2024-03-24T15:36:25.304Z,59.53
2024-03-24T15:41:25.135Z,61.80
2024-03-24T15:46:24.276Z,64.42
2024-03-24T15:51:22.955Z,65.66
2024-03-24T15:56:34.223Z,66.99
2024-03-24T16:01:38.551Z,67.18
2024-03-24T16:06:21.410Z,68.28
2024-03-24T16:11:28.866Z,67.50
2024-03-24T16:16:27.198Z,67.99
2024-03-24T16:21:32.691Z,67.43
2024-03-24T16:26:22.860Z,69.34
2024-03-24T16:31:25.177Z,68.57
2024-03-24T16:36:22.543Z,70.56
2024-03-24T16:41:25.778Z,72.08
2024-03-24T16:46:25.466Z,73.00
2024-03-24T16:51:22.087Z,76.04
2024-03-24T16:56:27.256Z,75.75
2024-03-24T17:01:23.264Z,75.35
2024-03-24T17:06:21.465Z,75.79
2024-03-24T17:11:27.089Z,76.11
2024-03-24T17:16:23.572Z,77.53
2024-03-24T17:21:24.945Z,77.92
2024-03-24T17:26:24.860Z,78.18
2024-03-24T17:31:33.225Z,77.34
2024-03-24T17:36:20.822Z,78.88
2024-03-24T17:41:20.841Z,78.92
2024-03-24T17:46:26.878Z,79.12
2024-03-24T17:51:20.752Z,80.33
2024-03-24T17:56:27.124Z,81.10
2024-03-24T18:01:25.001Z,81.24
2024-03-24T18:06:20.835Z,82.04
2024-03-24T18:11:27.431Z,82.91
2024-03-24T18:16:25.693Z,83.10
2024-03-24T18:21:25.853Z,84.32
2024-03-24T18:26:25.379Z,84.81
2024-03-24T18:31:22.903Z,86.00
2024-03-24T18:36:20.731Z,85.79
2024-03-24T18:41:28.508Z,87.30
2024-03-24T18:46:24.934Z,88.23
2024-03-24T18:51:22.936Z,88.20
2024-03-24T18:56:28.683Z,88.89
2024-03-24T19:01:22.948Z,89.44
2024-03-24T19:06:24.050Z,89.07
2024-03-24T19:11:20.878Z,89.70
2024-03-24T19:16:24.771Z,89.95
2024-03-24T19:21:25.006Z,90.14
2024-03-24T19:26:21.648Z,90.52
2024-03-24T19:31:28.332Z,90.07
2024-03-24T19:36:26.666Z,90.17
2024-03-24T19:41:29.908Z,89.71
2024-03-24T19:46:20.797Z,89.92
2024-03-24T19:51:33.618Z,89.48
2024-03-24T19:56:25.276Z,89.54
2024-03-24T20:01:23.724Z,89.64
2024-03-24T20:06:26.805Z,90.04
2024-03-24T20:11:22.798Z,91.03
2024-03-24T20:16:22.707Z,91.17
2024-03-24T20:18:29.135Z,91.17
2024-03-24T21:07:07.845Z,92.47
2024-03-24T21:09:20.135Z,92.47
2024-03-24T21:14:23.498Z,93.06
2024-03-24T21:19:26.296Z,92.96
2024-03-24T21:24:21.004Z,93.42
2024-03-24T21:29:20.882Z,93.37
2024-03-24T21:34:26.138Z,93.66
2024-03-24T21:44:22.245Z,93.56
2024-03-24T21:49:26.156Z,92.84
2024-03-24T21:54:20.020Z,92.02
2024-03-24T21:59:22.457Z,92.08
2024-03-24T22:04:26.184Z,91.58
2024-03-24T22:09:20.421Z,91.24
2024-03-24T22:14:22.106Z,90.99
2024-03-24T22:19:20.031Z,90.25
2024-03-24T22:24:24.688Z,89.54
2024-03-24T22:29:24.326Z,88.94
2024-03-24T22:34:22.419Z,89.22
2024-03-24T22:39:24.161Z,88.13
2024-03-24T22:44:22.234Z,87.94
2024-03-24T22:49:24.367Z,86.98
2024-03-24T22:54:24.015Z,86.80
2024-03-24T22:59:26.057Z,86.85
2024-03-24T23:04:24.323Z,87.07
2024-03-24T23:09:22.233Z,86.96
2024-03-24T23:14:26.547Z,87.27
2024-03-24T23:19:21.251Z,87.02
2024-03-24T23:24:23.375Z,87.68
2024-03-24T23:29:26.476Z,87.82
2024-03-24T23:34:22.798Z,87.99
2024-03-24T23:39:22.549Z,88.12
2024-03-24T23:44:25.647Z,88.39
2024-03-24T23:49:20.151Z,88.26
2024-03-24T23:54:22.146Z,88.29
2024-03-24T23:59:24.361Z,88.41
